createdAt,value
2019-03-16T00:01:57.604Z,14.17
2019-03-16T00:04:25.994Z,11.10
2019-03-16T00:06:54.265Z,8.07
2019-03-16T00:09:22.735Z,10.77
2019-03-16T00:11:51.107Z,10.87
2019-03-16T00:14:19.431Z,11.77
2019-03-16T00:16:47.669Z,6.43
2019-03-16T00:19:15.980Z,10.53
2019-03-16T00:21:44.230Z,13.50
2019-03-16T00:24:12.514Z,10.73
2019-03-16T00:26:40.855Z,10.13
2019-03-16T00:29:09.196Z,7.47
2019-03-16T00:31:37.595Z,10.27
2019-03-16T00:34:05.940Z,9.33
2019-03-16T00:36:34.267Z,11.03
2019-03-16T00:39:02.564Z,8.60
2019-03-16T00:41:30.797Z,7.73
2019-03-16T00:43:59.098Z,6.67
2019-03-16T00:46:27.401Z,7.33
2019-03-16T00:48:55.791Z,9.57
2019-03-16T00:51:24.076Z,12.13
2019-03-16T00:53:52.389Z,8.10
2019-03-16T00:56:20.664Z,8.43
2019-03-16T00:58:48.954Z,11.37
2019-03-16T01:01:17.275Z,11.50
2019-03-16T01:03:45.628Z,10.97
2019-03-16T01:06:14.003Z,10.23
2019-03-16T01:08:42.279Z,10.30
2019-03-16T01:11:10.650Z,14.03
2019-03-16T01:13:38.915Z,10.63
2019-03-16T01:16:07.233Z,12.87
2019-03-16T01:18:35.573Z,10.10
2019-03-16T01:21:03.924Z,12.33
2019-03-16T01:23:32.194Z,12.57
2019-03-16T01:26:00.501Z,8.70
2019-03-16T01:28:28.829Z,11.90
2019-03-16T01:30:57.083Z,16.53
2019-03-16T01:33:25.348Z,14.40
2019-03-16T01:35:53.652Z,12.10
2019-03-16T01:38:21.980Z,14.40
2019-03-16T01:40:50.326Z,10.43
2019-03-16T01:43:18.584Z,11.03
2019-03-16T01:45:46.864Z,10.60
2019-03-16T01:48:15.122Z,10.20
2019-03-16T01:50:43.401Z,16.37
2019-03-16T01:53:11.689Z,13.10
2019-03-16T01:55:39.946Z,10.50
2019-03-16T01:58:08.242Z,11.50
2019-03-16T02:00:36.570Z,11.73
2019-03-16T02:03:04.856Z,13.80
2019-03-16T02:05:33.222Z,10.17
2019-03-16T02:08:01.508Z,17.27
2019-03-16T02:10:29.765Z,17.00
2019-03-16T02:12:58.071Z,13.27
2019-03-16T02:15:26.328Z,11.43
2019-03-16T02:17:54.676Z,15.20
2019-03-16T02:20:22.928Z,14.27
2019-03-16T02:22:51.249Z,9.70
2019-03-16T02:25:19.495Z,18.70
2019-03-16T02:27:47.770Z,13.80
2019-03-16T02:30:16.055Z,12.87
2019-03-16T02:32:44.362Z,14.03
2019-03-16T02:35:12.613Z,10.13
2019-03-16T02:37:40.900Z,15.70
2019-03-16T02:40:10.380Z,16.33
2019-03-16T02:42:38.712Z,12.67
2019-03-16T02:45:08.997Z,15.07
2019-03-16T02:47:37.253Z,16.13
2019-03-16T02:50:07.399Z,9.53
2019-03-16T02:52:35.716Z,15.93
2019-03-16T02:55:05.639Z,12.03
2019-03-16T02:57:33.977Z,15.60
2019-03-16T03:00:02.295Z,11.43
2019-03-16T03:02:30.607Z,13.80
2019-03-16T03:04:58.895Z,16.80
2019-03-16T03:07:27.140Z,20.13
2019-03-16T03:09:55.490Z,12.13
2019-03-16T03:12:23.764Z,16.90
2019-03-16T03:14:52.149Z,15.17
2019-03-16T03:17:20.435Z,15.13
2019-03-16T03:19:48.704Z,14.53
2019-03-16T03:22:17.022Z,18.47
2019-03-16T03:24:45.353Z,12.73
2019-03-16T03:27:13.740Z,14.50
2019-03-16T03:29:42.031Z,17.83
2019-03-16T03:32:10.311Z,13.90
2019-03-16T03:34:38.751Z,15.87
2019-03-16T03:37:07.043Z,16.50
2019-03-16T03:39:35.302Z,19.67
2019-03-16T03:42:03.598Z,13.10
2019-03-16T03:44:31.944Z,15.43
2019-03-16T03:47:00.208Z,16.10
2019-03-16T03:49:28.479Z,9.03
2019-03-16T03:51:56.787Z,10.47
2019-03-16T03:54:25.098Z,15.17
2019-03-16T03:56:53.514Z,11.77
2019-03-16T03:59:21.781Z,9.53
2019-03-16T04:01:50.144Z,11.60
2019-03-16T04:04:18.423Z,12.57
2019-03-16T04:06:46.777Z,14.60
2019-03-16T04:09:15.100Z,10.80
2019-03-16T04:11:43.388Z,11.27
2019-03-16T04:14:11.650Z,12.97
2019-03-16T04:16:39.911Z,8.43
2019-03-16T04:19:08.173Z,14.03
2019-03-16T04:21:36.506Z,13.77
2019-03-16T04:24:04.825Z,12.70
2019-03-16T04:26:33.119Z,13.77
2019-03-16T04:29:01.398Z,15.07
2019-03-16T04:31:29.679Z,10.47
2019-03-16T04:33:57.972Z,7.57
2019-03-16T04:36:26.227Z,15.13
2019-03-16T04:38:54.573Z,10.73
2019-03-16T04:41:22.901Z,12.97
2019-03-16T04:43:51.229Z,13.77
2019-03-16T04:46:19.539Z,12.53
2019-03-16T04:48:47.883Z,14.87
2019-03-16T04:51:16.157Z,18.23
2019-03-16T04:53:44.528Z,9.77
2019-03-16T04:56:12.836Z,12.30
2019-03-16T04:58:41.088Z,13.83
2019-03-16T05:01:09.374Z,9.83
2019-03-16T05:03:37.674Z,10.50
2019-03-16T05:06:05.929Z,17.17
2019-03-16T05:08:34.279Z,14.90
2019-03-16T05:11:02.527Z,9.43
2019-03-16T05:13:30.905Z,12.70
2019-03-16T05:15:59.169Z,15.00
2019-03-16T05:18:27.457Z,12.27
2019-03-16T05:20:55.729Z,10.60
2019-03-16T05:23:23.976Z,11.53
2019-03-16T05:25:52.280Z,7.13
2019-03-16T05:28:20.617Z,10.43
2019-03-16T05:30:48.928Z,11.37
2019-03-16T05:33:17.165Z,7.80
2019-03-16T05:35:45.452Z,8.00
2019-03-16T05:38:13.731Z,8.77
2019-03-16T05:40:42.008Z,15.47
2019-03-16T05:43:10.274Z,11.60
2019-03-16T05:45:38.622Z,9.50
2019-03-16T05:48:06.873Z,12.47
2019-03-16T05:50:35.313Z,10.57
2019-03-16T05:53:03.662Z,7.47
2019-03-16T05:55:32.000Z,9.07
2019-03-16T05:58:00.297Z,13.30
2019-03-16T06:00:28.587Z,13.50
2019-03-16T06:02:56.908Z,9.50
2019-03-16T06:05:25.203Z,15.83
2019-03-16T06:07:53.583Z,15.33
2019-03-16T06:10:21.977Z,16.40
2019-03-16T06:12:50.308Z,13.43
2019-03-16T06:15:18.560Z,14.10
2019-03-16T06:17:46.858Z,15.50
2019-03-16T06:20:15.182Z,13.63
2019-03-16T06:22:43.498Z,12.10
2019-03-16T06:25:11.820Z,13.53
2019-03-16T06:27:40.091Z,12.73
2019-03-16T06:30:15.258Z,10.00
2019-03-16T06:32:43.563Z,10.03
2019-03-16T06:35:24.010Z,11.27
2019-03-16T06:37:41.830Z,8.47
2019-03-16T06:40:10.907Z,7.17
2019-03-16T06:42:39.192Z,14.40
2019-03-16T06:45:09.238Z,11.27
2019-03-16T06:47:37.622Z,15.40
2019-03-16T06:50:09.335Z,13.13
2019-03-16T06:52:37.626Z,17.43
2019-03-16T06:55:06.524Z,11.43
2019-03-16T06:57:34.860Z,11.07
2019-03-16T07:00:04.811Z,11.70
2019-03-16T07:02:33.103Z,11.77
2019-03-16T07:05:01.340Z,10.10
2019-03-16T07:07:29.592Z,10.27
2019-03-16T07:09:57.893Z,6.97
2019-03-16T07:12:26.158Z,7.50
2019-03-16T07:14:54.505Z,7.17
2019-03-16T07:17:22.763Z,11.97
2019-03-16T07:19:51.048Z,7.37
2019-03-16T07:22:19.333Z,11.27
2019-03-16T07:24:47.633Z,8.97
2019-03-16T07:27:25.703Z,7.03
2019-03-16T07:29:45.886Z,6.90
2019-03-16T07:32:14.162Z,8.63
2019-03-16T07:34:42.463Z,8.07
2019-03-16T07:37:10.792Z,7.90
2019-03-16T07:39:39.185Z,13.73
2019-03-16T07:42:07.509Z,11.07
2019-03-16T07:44:35.811Z,7.50
2019-03-16T07:47:04.112Z,8.20
2019-03-16T07:49:32.452Z,11.07
2019-03-16T07:52:00.759Z,6.80
2019-03-16T07:54:31.166Z,6.53
2019-03-16T07:56:59.166Z,9.43
2019-03-16T07:59:27.548Z,8.20
2019-03-16T08:01:55.908Z,9.37
2019-03-16T08:04:24.203Z,9.33
2019-03-16T08:06:52.554Z,5.40
2019-03-16T08:09:20.915Z,8.33
2019-03-16T08:11:49.321Z,6.17
2019-03-16T08:14:17.653Z,3.67
2019-03-16T08:16:46.013Z,3.23
2019-03-16T08:19:14.272Z,5.53
2019-03-16T08:21:42.591Z,8.53
2019-03-16T08:24:10.918Z,6.50
2019-03-16T08:26:39.219Z,4.97
2019-03-16T08:29:07.567Z,3.43
2019-03-16T08:31:35.922Z,1.80
2019-03-16T08:34:04.173Z,2.70
2019-03-16T08:36:32.463Z,1.73
2019-03-16T08:39:00.777Z,1.87
2019-03-16T08:41:29.118Z,1.77
2019-03-16T08:43:57.373Z,2.03
2019-03-16T08:46:25.687Z,2.70
2019-03-16T08:48:54.101Z,2.07
2019-03-16T08:51:22.404Z,3.73
2019-03-16T08:53:50.692Z,2.37
2019-03-16T08:56:18.968Z,2.50
2019-03-16T08:58:47.263Z,2.80
2019-03-16T09:01:15.622Z,2.47
2019-03-16T09:03:44.164Z,3.13
2019-03-16T09:06:12.512Z,3.63
2019-03-16T09:08:40.804Z,2.50
2019-03-16T09:11:09.082Z,3.33
2019-03-16T09:13:37.393Z,3.07
2019-03-16T09:16:05.733Z,4.17
2019-03-16T09:18:34.102Z,4.17
2019-03-16T09:21:02.353Z,2.90
2019-03-16T09:23:30.649Z,3.90
2019-03-16T09:25:59.016Z,4.97
2019-03-16T09:28:27.321Z,2.20
2019-03-16T09:30:56.581Z,3.30
2019-03-16T09:33:25.009Z,4.23
2019-03-16T09:35:53.498Z,5.30
2019-03-16T09:38:21.773Z,3.00
2019-03-16T09:40:50.053Z,4.93
2019-03-16T09:43:18.317Z,2.50
2019-03-16T09:45:46.645Z,4.23
2019-03-16T09:48:14.916Z,2.53
2019-03-16T09:50:43.214Z,5.20
2019-03-16T09:53:11.479Z,2.60
2019-03-16T09:55:39.823Z,2.53
2019-03-16T09:58:08.166Z,2.23
2019-03-16T10:00:36.443Z,2.40
2019-03-16T10:03:04.717Z,4.63
2019-03-16T10:05:33.056Z,2.43
2019-03-16T10:08:01.505Z,3.80
2019-03-16T10:10:29.835Z,7.13
2019-03-16T10:12:58.261Z,3.73
2019-03-16T10:15:26.630Z,3.13
2019-03-16T10:17:54.934Z,2.73
2019-03-16T10:20:23.348Z,4.10
2019-03-16T10:22:51.640Z,3.20
2019-03-16T10:25:19.903Z,5.20
2019-03-16T10:27:48.199Z,2.77
2019-03-16T10:30:16.473Z,3.17
2019-03-16T10:32:44.748Z,3.40
2019-03-16T10:35:13.056Z,2.77
2019-03-16T10:37:41.397Z,2.47
2019-03-16T10:40:13.682Z,3.37
2019-03-16T10:42:41.961Z,3.40
2019-03-16T10:45:11.478Z,3.27
2019-03-16T10:47:39.887Z,3.43
2019-03-16T10:50:12.907Z,3.00
2019-03-16T10:52:41.217Z,3.27
2019-03-16T10:55:09.543Z,4.73
2019-03-16T10:57:37.884Z,4.93
2019-03-16T11:00:11.373Z,4.37
2019-03-16T11:02:39.667Z,2.87
2019-03-16T11:05:08.033Z,3.87
2019-03-16T11:07:36.386Z,3.30
2019-03-16T11:10:07.585Z,5.67
2019-03-16T11:12:36.018Z,4.20
2019-03-16T11:15:07.067Z,2.90
2019-03-16T11:17:35.366Z,2.27
2019-03-16T11:20:06.253Z,2.40
2019-03-16T11:22:34.535Z,2.07
2019-03-16T11:25:03.011Z,1.47
2019-03-16T11:27:31.275Z,4.40
2019-03-16T11:29:59.580Z,3.17
2019-03-16T11:32:27.947Z,2.97
2019-03-16T11:34:56.259Z,2.20
2019-03-16T11:37:24.545Z,3.30
2019-03-16T11:39:52.916Z,2.20
2019-03-16T11:42:21.243Z,2.07
2019-03-16T11:44:49.558Z,1.77
2019-03-16T11:47:17.838Z,2.87
2019-03-16T11:49:46.230Z,2.70
2019-03-16T11:52:14.557Z,2.07
2019-03-16T11:54:42.928Z,3.20
2019-03-16T11:57:11.200Z,1.60
2019-03-16T11:59:39.550Z,2.37
2019-03-16T12:02:07.817Z,2.97
2019-03-16T12:04:36.115Z,2.90
2019-03-16T12:07:04.389Z,1.50
2019-03-16T12:09:32.756Z,1.33
2019-03-16T12:12:01.073Z,1.43
2019-03-16T12:14:29.360Z,1.80
2019-03-16T12:16:57.667Z,1.40
2019-03-16T12:19:25.983Z,0.90
2019-03-16T12:21:54.278Z,1.10
2019-03-16T12:24:22.555Z,1.40
2019-03-16T12:26:50.919Z,1.90
2019-03-16T12:29:19.288Z,4.20
2019-03-16T12:31:47.716Z,1.97
2019-03-16T12:34:16.067Z,1.47
2019-03-16T12:36:44.493Z,2.63
2019-03-16T12:39:12.769Z,1.97
2019-03-16T12:41:41.097Z,3.23
2019-03-16T12:44:09.376Z,1.73
2019-03-16T12:46:37.736Z,2.20
2019-03-16T12:49:06.015Z,1.93
2019-03-16T12:51:34.388Z,2.03
2019-03-16T12:54:02.781Z,1.57
2019-03-16T12:56:31.125Z,2.30
2019-03-16T12:59:09.966Z,2.40
2019-03-16T13:01:29.411Z,2.27
2019-03-16T13:03:57.743Z,1.63
2019-03-16T13:06:26.057Z,4.20
2019-03-16T13:08:54.331Z,8.30
2019-03-16T13:11:22.725Z,2.83
2019-03-16T13:13:51.016Z,3.13
2019-03-16T13:16:19.262Z,2.17
2019-03-16T13:18:47.557Z,2.27
2019-03-16T13:21:15.826Z,1.43
2019-03-16T13:23:44.215Z,1.13
2019-03-16T13:26:12.466Z,5.60
2019-03-16T13:28:40.785Z,1.40
2019-03-16T13:31:09.055Z,3.80
2019-03-16T13:33:37.431Z,1.60
2019-03-16T13:36:05.860Z,1.83
2019-03-16T13:38:34.188Z,2.97
2019-03-16T13:41:02.509Z,1.87
2019-03-16T13:43:30.843Z,2.40
2019-03-16T13:45:59.172Z,2.30
2019-03-16T13:48:27.581Z,2.03
2019-03-16T13:50:55.888Z,1.60
2019-03-16T13:53:24.328Z,2.20
2019-03-16T13:55:52.843Z,2.53
2019-03-16T13:58:21.226Z,2.63
2019-03-16T14:00:49.568Z,3.60
2019-03-16T14:03:18.143Z,2.73
2019-03-16T14:05:46.397Z,1.63
2019-03-16T14:08:14.736Z,1.63
2019-03-16T14:10:43.034Z,2.17
2019-03-16T14:13:11.312Z,1.30
2019-03-16T14:15:39.681Z,2.13
2019-03-16T14:18:07.980Z,3.07
2019-03-16T14:20:36.355Z,2.27
2019-03-16T14:23:04.897Z,4.50
2019-03-16T14:25:33.583Z,3.43
2019-03-16T14:28:01.924Z,2.63
2019-03-16T14:30:40.792Z,1.93
2019-03-16T14:33:00.306Z,4.20
2019-03-16T14:35:28.671Z,4.47
2019-03-16T14:37:56.936Z,4.70
2019-03-16T14:40:25.569Z,3.50
2019-03-16T14:42:53.886Z,2.53
2019-03-16T14:45:22.427Z,2.10
2019-03-16T14:47:50.757Z,4.47
2019-03-16T14:50:23.770Z,2.03
2019-03-16T14:52:52.006Z,2.37
2019-03-16T14:55:20.300Z,2.10
2019-03-16T14:57:48.557Z,2.30
2019-03-16T15:00:17.656Z,2.93
2019-03-16T15:02:46.743Z,4.60
2019-03-16T15:05:15.275Z,3.30
2019-03-16T15:07:43.554Z,3.07
2019-03-16T15:10:16.783Z,4.23
2019-03-16T15:12:45.172Z,3.00
2019-03-16T15:15:18.506Z,4.13
2019-03-16T15:17:46.813Z,3.57
2019-03-16T15:20:15.177Z,3.23
2019-03-16T15:22:43.566Z,2.20
2019-03-16T15:25:12.738Z,2.40
2019-03-16T15:27:41.002Z,4.10
2019-03-16T15:30:12.587Z,4.00
2019-03-16T15:32:40.902Z,2.03
2019-03-16T15:35:09.803Z,4.60
2019-03-16T15:37:38.072Z,3.27
2019-03-16T15:40:09.161Z,3.80
2019-03-16T15:42:37.486Z,4.60
2019-03-16T15:48:27.011Z,2.60
2019-03-16T15:50:55.342Z,1.57
2019-03-16T15:53:23.618Z,3.43
2019-03-16T15:55:51.894Z,4.50
2019-03-16T15:58:20.175Z,2.70
2019-03-16T16:00:48.500Z,3.33
2019-03-16T16:03:16.791Z,1.93
2019-03-16T16:05:45.066Z,2.87
2019-03-16T16:08:13.421Z,5.63
2019-03-16T16:10:41.691Z,5.80
2019-03-16T16:13:10.296Z,5.37
2019-03-16T16:15:38.776Z,3.10
2019-03-16T16:18:07.074Z,3.27
2019-03-16T16:20:35.387Z,6.43
2019-03-16T16:23:03.752Z,5.30
2019-03-16T16:25:32.072Z,2.37
2019-03-16T16:28:00.410Z,3.40
2019-03-16T16:30:28.687Z,3.93
2019-03-16T16:32:56.952Z,3.43
2019-03-16T16:35:25.249Z,2.33
2019-03-16T16:37:53.595Z,3.80
2019-03-16T16:40:22.022Z,1.80
2019-03-16T16:42:50.383Z,3.83
2019-03-16T16:45:18.781Z,4.13
2019-03-16T16:47:47.065Z,3.07
2019-03-16T16:50:22.490Z,4.13
2019-03-16T16:52:50.781Z,2.63
2019-03-16T16:55:19.158Z,4.60
2019-03-16T16:57:47.556Z,4.63
2019-03-16T17:00:26.565Z,3.83
2019-03-16T17:02:54.839Z,2.00
2019-03-16T17:05:23.142Z,4.37
2019-03-16T17:07:51.396Z,3.57
2019-03-16T17:10:19.738Z,2.37
2019-03-16T17:12:48.042Z,3.80
2019-03-16T17:15:18.719Z,5.47
2019-03-16T17:17:46.990Z,3.40
2019-03-16T17:20:15.720Z,4.87
2019-03-16T17:22:43.992Z,2.77
2019-03-16T17:25:13.128Z,3.60
2019-03-16T17:27:41.467Z,3.30
2019-03-16T17:30:24.403Z,5.13
2019-03-16T17:32:52.705Z,3.23
2019-03-16T17:35:21.054Z,2.40
2019-03-16T17:37:49.377Z,5.17
2019-03-16T17:40:17.735Z,3.53
2019-03-16T17:42:46.095Z,4.70
2019-03-16T17:45:14.712Z,5.03
2019-03-16T17:47:43.054Z,2.60
2019-03-16T17:50:12.470Z,4.03
2019-03-16T17:52:40.757Z,3.83
2019-03-16T17:55:10.671Z,4.20
2019-03-16T17:57:38.972Z,4.17
2019-03-16T18:00:15.154Z,3.70
2019-03-16T18:02:51.128Z,3.60
2019-03-16T18:05:13.506Z,5.23
2019-03-16T18:07:41.863Z,5.67
2019-03-16T18:10:13.845Z,4.93
2019-03-16T18:12:42.156Z,6.70
2019-03-16T18:15:13.821Z,4.77
2019-03-16T18:17:42.087Z,3.40
2019-03-16T18:20:12.756Z,5.37
2019-03-16T18:22:41.068Z,5.63
2019-03-16T18:25:11.159Z,5.20
2019-03-16T18:27:39.445Z,4.00
2019-03-16T18:30:24.758Z,3.37
2019-03-16T18:32:53.135Z,2.57
2019-03-16T18:35:21.436Z,2.93
2019-03-16T18:37:49.767Z,3.83
2019-03-16T18:40:18.136Z,3.77
2019-03-16T18:42:46.434Z,5.43
2019-03-16T18:45:25.949Z,3.90
2019-03-16T18:47:54.234Z,3.33
2019-03-16T18:50:22.546Z,5.73
2019-03-16T18:52:50.803Z,5.17
2019-03-16T18:55:19.148Z,3.53
2019-03-16T18:57:47.444Z,3.87
2019-03-16T19:00:16.564Z,2.73
2019-03-16T19:02:44.851Z,4.40
2019-03-16T19:05:13.193Z,6.10
2019-03-16T19:07:41.544Z,5.73
2019-03-16T19:10:17.006Z,9.33
2019-03-16T19:12:45.333Z,4.33
2019-03-16T19:15:15.880Z,3.37
2019-03-16T19:17:57.266Z,4.20
2019-03-16T19:20:15.104Z,5.80
2019-03-16T19:22:43.568Z,5.47
2019-03-16T19:25:18.111Z,5.07
2019-03-16T19:27:46.501Z,5.13
2019-03-16T19:30:15.589Z,4.70
2019-03-16T19:32:44.054Z,4.80
2019-03-16T19:35:12.558Z,4.93
2019-03-16T19:37:40.874Z,3.83
2019-03-16T19:40:12.464Z,7.90
2019-03-16T19:42:40.790Z,3.70
2019-03-16T19:45:11.650Z,5.37
2019-03-16T19:47:40.085Z,4.60
2019-03-16T19:50:17.416Z,5.03
2019-03-16T19:52:45.768Z,3.63
2019-03-16T19:55:15.117Z,6.13
2019-03-16T19:57:43.487Z,4.53
2019-03-16T20:00:16.838Z,8.33
2019-03-16T20:02:51.151Z,6.27
2019-03-16T20:05:15.228Z,4.40
2019-03-16T20:07:43.578Z,4.63
2019-03-16T20:10:17.007Z,5.47
2019-03-16T20:12:45.468Z,5.80
2019-03-16T20:15:14.601Z,3.80
2019-03-16T20:17:42.955Z,4.13
2019-03-16T20:20:12.715Z,4.40
2019-03-16T20:22:41.105Z,6.23
2019-03-16T20:25:09.609Z,5.43
2019-03-16T20:27:37.946Z,4.63
2019-03-16T20:30:11.340Z,5.00
2019-03-16T20:32:39.644Z,6.83
2019-03-16T20:35:08.909Z,4.90
2019-03-16T20:37:37.171Z,5.30
2019-03-16T20:40:08.390Z,5.40
2019-03-16T20:42:36.660Z,8.90
2019-03-16T20:45:06.293Z,7.33
2019-03-16T20:47:34.608Z,6.27
2019-03-16T20:50:03.042Z,3.57
2019-03-16T20:52:31.313Z,5.13
2019-03-16T20:54:59.616Z,6.63
2019-03-16T20:57:28.000Z,4.97
2019-03-16T20:59:56.446Z,7.57
2019-03-16T21:02:24.801Z,6.53
2019-03-16T21:04:53.124Z,4.43
2019-03-16T21:07:21.380Z,5.97
2019-03-16T21:09:49.695Z,4.33
2019-03-16T21:12:18.029Z,4.03
2019-03-16T21:14:46.346Z,3.43
2019-03-16T21:17:14.747Z,4.47
2019-03-16T21:19:43.085Z,7.53
2019-03-16T21:22:11.351Z,5.90
2019-03-16T21:24:39.800Z,6.13
2019-03-16T21:27:08.139Z,5.63
2019-03-16T21:29:36.600Z,5.53
2019-03-16T21:32:04.864Z,6.27
2019-03-16T21:34:33.483Z,6.43
2019-03-16T21:37:01.893Z,4.93
2019-03-16T21:39:30.169Z,4.07
2019-03-16T21:41:58.549Z,5.20
2019-03-16T21:44:26.978Z,5.57
2019-03-16T21:46:55.296Z,6.87
2019-03-16T21:49:23.570Z,5.90
2019-03-16T21:51:51.954Z,4.50
2019-03-16T21:54:20.254Z,4.30
2019-03-16T21:56:48.654Z,7.53
2019-03-16T21:59:16.961Z,6.23
2019-03-16T22:01:45.289Z,3.23
2019-03-16T22:04:13.587Z,4.33
2019-03-16T22:06:41.879Z,4.13
2019-03-16T22:09:10.216Z,4.83
2019-03-16T22:11:38.489Z,4.17
2019-03-16T22:14:06.768Z,4.53
2019-03-16T22:16:35.146Z,6.23
2019-03-16T22:19:03.462Z,4.70
2019-03-16T22:21:31.776Z,3.13
2019-03-16T22:24:00.084Z,4.57
2019-03-16T22:26:28.399Z,6.47
2019-03-16T22:28:56.775Z,4.63
2019-03-16T22:31:25.045Z,5.63
2019-03-16T22:33:54.799Z,4.00
2019-03-16T22:36:23.210Z,4.13
2019-03-16T22:38:51.549Z,5.90
2019-03-16T22:41:19.895Z,3.93
2019-03-16T22:43:48.220Z,3.87
2019-03-16T22:46:16.544Z,3.60
2019-03-16T22:48:44.860Z,3.97
2019-03-16T22:51:13.162Z,2.60
2019-03-16T22:53:41.491Z,4.97
2019-03-16T22:56:09.770Z,3.50
2019-03-16T22:58:38.113Z,3.40
2019-03-16T23:01:06.367Z,5.93
2019-03-16T23:03:34.790Z,3.47
2019-03-16T23:06:03.063Z,3.30
2019-03-16T23:08:31.575Z,4.30
2019-03-16T23:10:59.854Z,3.40
2019-03-16T23:13:28.123Z,3.30
2019-03-16T23:15:56.417Z,3.23
2019-03-16T23:18:24.708Z,4.67
2019-03-16T23:20:52.984Z,2.87
2019-03-16T23:23:21.275Z,4.53
2019-03-16T23:25:49.633Z,4.43
2019-03-16T23:28:17.981Z,4.40
2019-03-16T23:30:46.347Z,3.57
2019-03-16T23:33:14.739Z,4.47
2019-03-16T23:35:43.024Z,3.80
2019-03-16T23:38:11.268Z,3.83
2019-03-16T23:40:39.553Z,4.50
2019-03-16T23:43:07.979Z,4.50
2019-03-16T23:45:36.271Z,3.33
2019-03-16T23:48:04.534Z,5.20
2019-03-16T23:50:32.919Z,2.97
2019-03-16T23:53:01.165Z,4.57
2019-03-16T23:55:29.515Z,2.40
2019-03-16T23:57:57.789Z,3.33
